createdAt,value
2022-08-17T00:04:22.736Z,24.89
2022-08-17T00:09:26.211Z,24.91
2022-08-17T00:14:30.660Z,24.98
2022-08-17T00:19:34.806Z,24.93
2022-08-17T00:24:41.729Z,24.97
2022-08-17T00:29:46.834Z,25.01
2022-08-17T00:34:50.964Z,25.09
2022-08-17T00:39:55.240Z,25.08
2022-08-17T00:44:59.607Z,25.06
2022-08-17T00:50:07.035Z,25.08
2022-08-17T00:55:11.179Z,25.11
2022-08-17T01:00:21.123Z,25.08
2022-08-17T01:05:33.141Z,24.99
2022-08-17T01:10:58.921Z,24.89
2022-08-17T01:16:27.922Z,24.84
2022-08-17T01:21:52.795Z,24.77
2022-08-17T01:26:57.662Z,24.68
2022-08-17T01:32:04.466Z,24.64
2022-08-17T01:37:08.975Z,24.61
2022-08-17T01:42:24.811Z,24.57
2022-08-17T01:47:30.457Z,24.48
2022-08-17T01:52:35.435Z,24.49
2022-08-17T01:57:38.712Z,24.48
2022-08-17T02:02:42.604Z,24.46
2022-08-17T02:07:59.966Z,24.45
2022-08-17T02:13:05.329Z,24.41
2022-08-17T02:18:10.844Z,24.42
2022-08-17T02:23:14.264Z,24.43
2022-08-17T02:28:18.286Z,24.49
2022-08-17T02:33:22.776Z,24.58
2022-08-17T02:38:26.790Z,24.67
2022-08-17T02:43:30.473Z,24.71
2022-08-17T02:48:34.082Z,24.72
2022-08-17T02:53:44.488Z,24.74
2022-08-17T02:58:47.972Z,24.72
2022-08-17T03:03:51.527Z,24.69
2022-08-17T03:08:55.086Z,24.66
2022-08-17T03:13:58.500Z,24.66
2022-08-17T03:19:02.003Z,24.62
2022-08-17T03:24:08.689Z,24.67
2022-08-17T03:29:12.428Z,24.73
2022-08-17T03:34:16.949Z,24.80
2022-08-17T03:39:21.125Z,24.83
2022-08-17T03:44:24.745Z,24.90
2022-08-17T03:49:28.849Z,24.90
2022-08-17T03:54:32.752Z,24.94
2022-08-17T03:59:36.308Z,24.94
2022-08-17T04:04:40.504Z,25.04
2022-08-17T04:09:43.984Z,25.21
2022-08-17T04:14:52.585Z,25.35
2022-08-17T04:19:57.783Z,25.38
2022-08-17T04:25:15.104Z,25.49
2022-08-17T04:30:18.819Z,25.49
2022-08-17T04:35:27.560Z,25.39
2022-08-17T04:40:31.626Z,25.36
2022-08-17T04:45:40.001Z,25.37
2022-08-17T04:50:48.926Z,25.45
2022-08-17T04:55:53.577Z,25.54
2022-08-17T05:00:57.209Z,25.70
2022-08-17T05:06:01.071Z,25.79
2022-08-17T05:11:04.772Z,25.99
2022-08-17T05:16:08.706Z,26.31
2022-08-17T05:21:11.950Z,26.57
2022-08-17T05:26:26.516Z,26.86
2022-08-17T05:31:31.796Z,27.02
2022-08-17T05:36:42.048Z,26.98
2022-08-17T05:41:49.550Z,27.18
2022-08-17T05:46:53.973Z,27.52
2022-08-17T05:52:26.960Z,28.26
2022-08-17T05:57:47.456Z,30.20
2022-08-17T06:03:01.268Z,31.88
2022-08-17T06:08:24.196Z,31.57
2022-08-17T06:14:05.059Z,32.16
2022-08-17T06:19:25.542Z,32.39
2022-08-17T06:24:44.054Z,32.23
2022-08-17T06:29:58.100Z,32.21
2022-08-17T06:35:03.276Z,32.71
2022-08-17T06:40:37.809Z,33.73
2022-08-17T06:45:57.813Z,34.67
2022-08-17T06:51:16.450Z,34.42
2022-08-17T06:56:54.060Z,33.47
2022-08-17T07:01:55.664Z,32.61
2022-08-17T07:07:10.999Z,31.87
2022-08-17T07:12:23.232Z,31.30
2022-08-17T07:17:46.487Z,30.85
2022-08-17T07:23:19.661Z,30.54
2022-08-17T07:28:23.973Z,30.42
2022-08-17T07:33:32.697Z,30.47
2022-08-17T07:38:56.774Z,30.73
2022-08-17T07:44:00.140Z,30.89
2022-08-17T07:49:03.809Z,30.98
2022-08-17T07:54:16.583Z,31.14
2022-08-17T07:59:38.093Z,31.35
2022-08-17T08:05:00.656Z,31.63
2022-08-17T08:10:16.651Z,31.86
2022-08-17T08:15:33.166Z,32.01
2022-08-17T08:20:52.904Z,32.20
2022-08-17T08:26:22.011Z,32.24
2022-08-17T08:32:05.322Z,32.34
2022-08-17T08:37:34.556Z,32.39
2022-08-17T08:43:05.225Z,32.23
2022-08-17T08:48:56.346Z,32.20
2022-08-17T08:54:39.590Z,32.31
2022-08-17T09:00:12.106Z,32.31
2022-08-17T09:05:37.329Z,32.04
2022-08-17T09:10:44.178Z,31.88
2022-08-17T09:16:13.646Z,31.72
2022-08-17T09:21:36.278Z,31.66
2022-08-17T09:26:58.116Z,31.55
2022-08-17T09:32:09.670Z,31.38
2022-08-17T09:37:23.468Z,31.32
2022-08-17T09:42:58.972Z,31.25
2022-08-17T09:48:22.147Z,31.14
2022-08-17T09:53:26.445Z,31.07
2022-08-17T09:59:03.626Z,30.96
2022-08-17T10:04:44.469Z,30.87
2022-08-17T10:10:19.736Z,30.75
2022-08-17T10:15:42.740Z,30.58
2022-08-17T10:20:57.510Z,30.49
2022-08-17T10:26:18.852Z,30.46
2022-08-17T10:31:34.745Z,30.39
2022-08-17T10:36:50.641Z,30.34
2022-08-17T10:41:58.170Z,30.32
2022-08-17T10:47:11.737Z,30.29
2022-08-17T10:52:25.266Z,30.25
2022-08-17T10:57:40.241Z,30.20
2022-08-17T11:02:51.345Z,30.14
2022-08-17T11:08:13.511Z,30.03
2022-08-17T11:14:02.121Z,29.95
2022-08-17T11:19:54.887Z,29.88
2022-08-17T11:25:13.431Z,29.83
2022-08-17T11:30:56.722Z,29.72
2022-08-17T11:36:39.864Z,29.64
2022-08-17T11:42:03.256Z,29.55
2022-08-17T11:47:12.756Z,29.55
2022-08-17T11:52:37.728Z,29.47
2022-08-17T11:57:41.856Z,29.32
2022-08-17T12:02:48.496Z,29.31
2022-08-17T12:08:07.024Z,29.27
2022-08-17T12:13:15.744Z,29.24
2022-08-17T12:18:28.394Z,29.19
2022-08-17T12:24:07.244Z,29.11
2022-08-17T12:29:17.855Z,29.00
2022-08-17T12:34:44.039Z,28.98
2022-08-17T12:40:06.854Z,28.96
2022-08-17T12:45:27.097Z,28.90
2022-08-17T12:50:31.010Z,28.81
2022-08-17T12:55:37.092Z,28.76
2022-08-17T13:00:47.301Z,28.69
2022-08-17T13:52:42.833Z,27.50
2022-08-17T13:57:50.579Z,27.72
2022-08-17T14:03:10.192Z,27.89
2022-08-17T14:08:15.929Z,27.99
2022-08-17T14:13:20.065Z,27.95
2022-08-17T14:18:35.517Z,27.95
2022-08-17T14:23:49.053Z,27.95
2022-08-17T14:28:58.276Z,27.97
2022-08-17T14:34:05.828Z,27.90
2022-08-17T14:39:11.127Z,27.85
2022-08-17T14:44:16.579Z,27.84
2022-08-17T14:49:20.117Z,27.82
2022-08-17T14:54:32.606Z,27.75
2022-08-17T14:59:37.887Z,27.68
2022-08-17T15:04:45.503Z,27.61
2022-08-17T15:09:49.341Z,27.45
2022-08-17T15:14:52.886Z,27.37
2022-08-17T15:19:56.454Z,27.32
2022-08-17T15:25:05.459Z,27.27
2022-08-17T15:30:10.460Z,27.15
2022-08-17T15:35:14.626Z,27.03
2022-08-17T15:40:18.341Z,26.95
2022-08-17T15:45:24.509Z,26.93
2022-08-17T15:50:28.124Z,26.87
2022-08-17T15:55:33.269Z,26.79
2022-08-17T16:00:53.548Z,26.70
2022-08-17T16:05:59.982Z,26.60
2022-08-17T16:11:04.317Z,26.49
2022-08-17T16:16:09.071Z,26.42
2022-08-17T16:21:16.285Z,26.34
2022-08-17T16:26:19.843Z,26.26
2022-08-17T16:31:24.527Z,26.22
2022-08-17T16:36:28.149Z,26.17
2022-08-17T16:41:31.932Z,26.13
2022-08-17T16:46:35.521Z,26.07
2022-08-17T16:51:40.497Z,26.00
2022-08-17T16:56:43.968Z,25.95
2022-08-17T17:01:47.690Z,25.87
2022-08-17T17:07:31.795Z,25.80
2022-08-17T17:13:02.209Z,25.72
2022-08-17T17:18:06.930Z,25.72
2022-08-17T17:23:43.166Z,25.72
2022-08-17T17:29:10.998Z,25.72
2022-08-17T17:34:16.268Z,25.71
2022-08-17T17:39:26.550Z,25.67
2022-08-17T17:44:38.374Z,25.65
2022-08-17T17:49:46.793Z,25.61
2022-08-17T17:54:56.308Z,25.54
2022-08-17T17:59:59.604Z,25.49
2022-08-17T18:05:23.235Z,25.46
2022-08-17T18:10:42.000Z,25.45
2022-08-17T18:15:48.636Z,25.41
2022-08-17T18:20:55.889Z,25.37
2022-08-17T18:26:00.636Z,25.39
2022-08-17T18:31:16.642Z,25.36
2022-08-17T18:36:30.146Z,25.33
2022-08-17T18:41:41.668Z,25.29
2022-08-17T18:46:45.270Z,25.23
2022-08-17T18:51:48.774Z,25.19
2022-08-17T18:56:55.351Z,25.14
2022-08-17T19:02:33.664Z,25.09
2022-08-17T19:07:47.258Z,25.05
2022-08-17T19:12:50.662Z,25.00
2022-08-17T19:18:15.530Z,24.97
2022-08-17T19:23:36.208Z,24.94
2022-08-17T19:28:49.726Z,24.90
2022-08-17T19:33:54.490Z,24.85
2022-08-17T19:38:58.958Z,24.83
2022-08-17T19:44:18.581Z,24.78
2022-08-17T19:49:40.873Z,24.75
2022-08-17T19:54:54.049Z,24.71
2022-08-17T20:00:05.588Z,24.70
2022-08-17T20:05:17.005Z,24.70
2022-08-17T20:10:34.207Z,24.68
2022-08-17T20:15:41.482Z,24.71
2022-08-17T20:21:10.395Z,24.70
2022-08-17T20:26:34.826Z,24.66
2022-08-17T20:31:49.289Z,24.63
2022-08-17T20:37:03.062Z,24.58
2022-08-17T20:42:11.963Z,24.57
2022-08-17T20:47:32.142Z,24.58
2022-08-17T20:52:47.978Z,24.57
2022-08-17T20:57:51.645Z,24.54
2022-08-17T21:03:19.951Z,24.55
2022-08-17T21:08:45.870Z,24.59
2022-08-17T21:14:13.602Z,24.62
2022-08-17T21:20:00.489Z,24.62
2022-08-17T21:25:42.857Z,24.61
2022-08-17T21:30:59.019Z,24.57
2022-08-17T21:36:12.270Z,24.56
2022-08-17T21:41:32.656Z,24.54
2022-08-17T21:46:40.528Z,24.52
2022-08-17T21:51:53.812Z,24.54
2022-08-17T21:57:00.030Z,24.53
2022-08-17T22:02:05.908Z,24.50
2022-08-17T22:07:12.409Z,24.42
2022-08-17T22:12:19.308Z,24.37
2022-08-17T22:17:36.627Z,24.30
2022-08-17T22:22:46.508Z,24.23
2022-08-17T22:27:52.594Z,24.17
2022-08-17T22:32:57.061Z,24.10
2022-08-17T22:38:18.749Z,24.06
2022-08-17T22:43:26.667Z,24.04
2022-08-17T22:48:30.275Z,24.03
2022-08-17T22:53:35.856Z,24.01
2022-08-17T22:58:58.712Z,23.93
2022-08-17T23:04:06.752Z,23.87
2022-08-17T23:09:09.954Z,23.81
2022-08-17T23:14:14.267Z,23.77
2022-08-17T23:19:20.892Z,23.77
2022-08-17T23:24:32.366Z,23.75
2022-08-17T23:29:36.334Z,23.71
2022-08-17T23:34:41.189Z,23.68
2022-08-17T23:39:45.840Z,23.64
2022-08-17T23:44:49.187Z,23.59
2022-08-17T23:49:54.223Z,23.55
2022-08-17T23:55:01.161Z,23.52
